Crane — ZR3519 — position and weather

sailwx.info

Track history (hours):
 
Tides and Currents Weather Stations Pressure Air Temp Water Temp Dewpoint Dewpoint Depression Visibility Wind Speed Wind Dir Waves Ship Positions

Crane

Last reported at 2017-Feb-16 22:22 UTC. Time now 2017-Sep-26 12:55 UTC.
Position S 29°52' E 031°01'.
Warning: this ship's position is months out of date.

MMSI: 601085000.

Date/timePositionNaut miles runAvg speedWind from/ knotsBaromVisibWave heightAir tempDewpointWater temp
2017-Feb-16 22:22S 29°52' E 031°01'1 1.6
2017-Feb-16 21:33S 29°52' E 031°02'3 2.9
2017-Feb-16 20:33S 29°52' E 031°06'4 4.1
2017-Feb-16 19:33S 29°52' E 031°01'1 0.2
2017-Feb-16 14:07S 29°53' E 031°00'0 0.3
2017-Feb-16 13:33S 29°53' E 031°00'5 4.9
2017-Feb-16 12:33S 29°53' E 031°06'2 2.0
2017-Feb-16 11:33S 29°52' E 031°04'3 3.3
2017-Feb-16 10:33S 29°53' E 031°00'0 0.0
2017-Feb-15 23:33S 29°53' E 031°00'4 4.0
2017-Feb-15 22:33S 29°52' E 031°04'0 0.2
2017-Feb-15 21:33S 29°52' E 031°05'3 3.0
2017-Feb-15 20:33S 29°52' E 031°01'1 0.4
2017-Feb-15 17:14S 29°53' E 031°00'1 1.7
2017-Feb-15 16:32S 29°52' E 031°01'0 0.0
2017-Feb-15 08:33S 29°52' E 031°01'6 6.3
2017-Feb-15 07:33S 29°53' E 031°08'1 0.9
2017-Feb-15 06:33S 29°53' E 031°07'5 5.2
2017-Feb-15 05:33S 29°52' E 031°01'0 0.2
2017-Feb-15 04:33S 29°52' E 031°01'0 0.4
2017-Feb-15 03:33S 29°52' E 031°01'1 0.1
2017-Feb-14 14:08S 29°53' E 031°00'2 2.7
2017-Feb-14 13:34S 29°52' E 031°02'5 4.8
2017-Feb-14 12:34S 29°52' E 031°07'2 1.5
2017-Feb-14 11:34S 29°54' E 031°08'5 4.6
2017-Feb-14 10:34S 29°53' E 031°03'2 0.1
2017-Feb-13 16:06S 29°53' E 031°00'2 4.1
2017-Feb-13 15:34S 29°53' E 031°03'4 3.9
2017-Feb-13 14:34S 29°53' E 031°07'5 4.6
2017-Feb-13 13:33S 29°52' E 031°02'1 0.0
2017-Feb-12 02:03S 29°52' E 031°01'1 1.7
2017-Feb-12 01:33S 29°52' E 031°02'5 4.9
2017-Feb-12 00:33S 29°53' E 031°07'4 4.2
2017-Feb-11 23:33S 29°53' E 031°02'2 2.1
2017-Feb-11 22:33S 29°53' E 031°00'0 0.0
2017-Feb-11 02:33S 29°53' E 031°00'5 4.9
2017-Feb-11 01:33S 29°52' E 031°06'2 1.9
2017-Feb-11 00:33S 29°52' E 031°03'1 0.1
2017-Feb-10 15:33S 29°52' E 031°02'4 4.2
2017-Feb-10 14:33S 29°53' E 031°07'4 4.3
2017-Feb-10 13:33S 29°52' E 031°02'2 0.2
2017-Feb-10 04:19S 29°53' E 031°00'0 0.1
2017-Feb-10 03:33S 29°53' E 031°00'6 5.9
2017-Feb-10 02:33S 29°53' E 031°07'0 0.5
2017-Feb-10 01:33S 29°53' E 031°07'6 5.9
2017-Feb-10 00:33S 29°52' E 031°01'1 0.0
2017-Feb-09 11:07S 29°53' E 031°00'2 3.6
2017-Feb-09 10:33S 29°53' E 031°02'4 4.4
2017-Feb-09 09:33S 29°53' E 031°07'5 4.6
2017-Feb-09 08:33S 29°52' E 031°02'2 1.9
2017-Feb-09 07:33S 29°53' E 031°00'0 0.0
2017-Feb-09 06:33S 29°53' E 031°00'0 0.0
2017-Feb-09 05:33S 29°53' E 031°00'0 0.0
2017-Feb-08 23:28S 29°53' E 031°00'4 4.5
2017-Feb-08 22:34S 29°52' E 031°05'0 0.2
2017-Feb-08 21:32S 29°52' E 031°04'2 2.5
2017-Feb-08 20:33S 29°52' E 031°02'1 0.2
2017-Feb-08 17:33S 29°53' E 031°02'0 0.1
2017-Feb-08 15:33S 29°53' E 031°02'0 0.0
2017-Feb-08 14:34S 29°53' E 031°02'0 0.4
2017-Feb-08 13:33S 29°53' E 031°02'2 0.2
2017-Feb-08 05:33S 29°53' E 031°00'0 0.0
2017-Feb-08 04:33S 29°53' E 031°00'1 1.2
2017-Feb-08 03:33S 29°52' E 031°01'4 4.5
2017-Feb-08 02:33S 29°53' E 031°06'3 3.3
2017-Feb-08 01:33S 29°53' E 031°03'2 0.1
2017-Feb-07 07:33S 29°53' E 031°00'5 5.0
2017-Feb-07 06:33S 29°53' E 031°06'3 3.0
2017-Feb-07 05:33S 29°53' E 031°02'1 0.5
2017-Feb-07 02:33S 29°52' E 031°01'  
Track history (hours):
 
Tides and Currents Weather Stations Pressure Air Temp Water Temp Dewpoint Dewpoint Depression Visibility Wind Speed Wind Dir Waves Ship Positions

Crane

Last reported at 2017-Feb-16 22:22 UTC. Time now 2017-Sep-26 12:55 UTC.
Position S 29°52' E 031°01'.
Warning: this ship's position is months out of date.

MMSI: 601085000.

Date/timePositionNaut miles runAvg speedWind from/ knotsBaromVisibWave heightAir tempDewpointWater temp
2017-Feb-16 22:22S 29°52' E 031°01'1 1.6
2017-Feb-16 21:33S 29°52' E 031°02'3 2.9
2017-Feb-16 20:33S 29°52' E 031°06'4 4.1
2017-Feb-16 19:33S 29°52' E 031°01'1 0.2
2017-Feb-16 14:07S 29°53' E 031°00'0 0.3
2017-Feb-16 13:33S 29°53' E 031°00'5 4.9
2017-Feb-16 12:33S 29°53' E 031°06'2 2.0
2017-Feb-16 11:33S 29°52' E 031°04'3 3.3
2017-Feb-16 10:33S 29°53' E 031°00'0 0.0
2017-Feb-15 23:33S 29°53' E 031°00'4 4.0
2017-Feb-15 22:33S 29°52' E 031°04'0 0.2
2017-Feb-15 21:33S 29°52' E 031°05'3 3.0
2017-Feb-15 20:33S 29°52' E 031°01'1 0.4
2017-Feb-15 17:14S 29°53' E 031°00'1 1.7
2017-Feb-15 16:32S 29°52' E 031°01'0 0.0
2017-Feb-15 08:33S 29°52' E 031°01'6 6.3
2017-Feb-15 07:33S 29°53' E 031°08'1 0.9
2017-Feb-15 06:33S 29°53' E 031°07'5 5.2
2017-Feb-15 05:33S 29°52' E 031°01'0 0.2
2017-Feb-15 04:33S 29°52' E 031°01'0 0.4
2017-Feb-15 03:33S 29°52' E 031°01'1 0.1
2017-Feb-14 14:08S 29°53' E 031°00'2 2.7
2017-Feb-14 13:34S 29°52' E 031°02'5 4.8
2017-Feb-14 12:34S 29°52' E 031°07'2 1.5
2017-Feb-14 11:34S 29°54' E 031°08'5 4.6
2017-Feb-14 10:34S 29°53' E 031°03'2 0.1
2017-Feb-13 16:06S 29°53' E 031°00'2 4.1
2017-Feb-13 15:34S 29°53' E 031°03'4 3.9
2017-Feb-13 14:34S 29°53' E 031°07'5 4.6
2017-Feb-13 13:33S 29°52' E 031°02'1 0.0
2017-Feb-12 02:03S 29°52' E 031°01'1 1.7
2017-Feb-12 01:33S 29°52' E 031°02'5 4.9
2017-Feb-12 00:33S 29°53' E 031°07'4 4.2
2017-Feb-11 23:33S 29°53' E 031°02'2 2.1
2017-Feb-11 22:33S 29°53' E 031°00'0 0.0
2017-Feb-11 02:33S 29°53' E 031°00'5 4.9
2017-Feb-11 01:33S 29°52' E 031°06'2 1.9
2017-Feb-11 00:33S 29°52' E 031°03'1 0.1
2017-Feb-10 15:33S 29°52' E 031°02'4 4.2
2017-Feb-10 14:33S 29°53' E 031°07'4 4.3
2017-Feb-10 13:33S 29°52' E 031°02'2 0.2
2017-Feb-10 04:19S 29°53' E 031°00'0 0.1
2017-Feb-10 03:33S 29°53' E 031°00'6 5.9
2017-Feb-10 02:33S 29°53' E 031°07'0 0.5
2017-Feb-10 01:33S 29°53' E 031°07'6 5.9
2017-Feb-10 00:33S 29°52' E 031°01'1 0.0
2017-Feb-09 11:07S 29°53' E 031°00'2 3.6
2017-Feb-09 10:33S 29°53' E 031°02'4 4.4
2017-Feb-09 09:33S 29°53' E 031°07'5 4.6
2017-Feb-09 08:33S 29°52' E 031°02'2 1.9
2017-Feb-09 07:33S 29°53' E 031°00'0 0.0
2017-Feb-09 06:33S 29°53' E 031°00'0 0.0
2017-Feb-09 05:33S 29°53' E 031°00'0 0.0
2017-Feb-08 23:28S 29°53' E 031°00'4 4.5
2017-Feb-08 22:34S 29°52' E 031°05'0 0.2
2017-Feb-08 21:32S 29°52' E 031°04'2 2.5
2017-Feb-08 20:33S 29°52' E 031°02'1 0.2
2017-Feb-08 17:33S 29°53' E 031°02'0 0.1
2017-Feb-08 15:33S 29°53' E 031°02'0 0.0
2017-Feb-08 14:34S 29°53' E 031°02'0 0.4
2017-Feb-08 13:33S 29°53' E 031°02'2 0.2
2017-Feb-08 05:33S 29°53' E 031°00'0 0.0
2017-Feb-08 04:33S 29°53' E 031°00'1 1.2
2017-Feb-08 03:33S 29°52' E 031°01'4 4.5
2017-Feb-08 02:33S 29°53' E 031°06'3 3.3
2017-Feb-08 01:33S 29°53' E 031°03'2 0.1
2017-Feb-07 07:33S 29°53' E 031°00'5 5.0
2017-Feb-07 06:33S 29°53' E 031°06'3 3.0
2017-Feb-07 05:33S 29°53' E 031°02'1 0.5
2017-Feb-07 02:33S 29°52' E 031°01'  

Dump ship's entire track history